sensor_id;sensor_type;location;lat;lon;timestamp;temperature;humidity
16893;DHT22;8563;52.242;9.098;2024-01-30T00:01:49;6.60;99.90
16893;DHT22;8563;52.242;9.098;2024-01-30T00:04:23;6.60;99.90
16893;DHT22;8563;52.242;9.098;2024-01-30T00:06:55;6.60;99.90
16893;DHT22;8563;52.242;9.098;2024-01-30T00:09:27;6.60;99.90
16893;DHT22;8563;52.242;9.098;2024-01-30T00:12:00;6.50;99.90
16893;DHT22;8563;52.242;9.098;2024-01-30T00:14:32;6.60;99.90
16893;DHT22;8563;52.242;9.098;2024-01-30T00:17:04;6.60;99.90
16893;DHT22;8563;52.242;9.098;2024-01-30T00:19:38;6.50;99.90
16893;DHT22;8563;52.242;9.098;2024-01-30T00:22:10;6.50;99.90
16893;DHT22;8563;52.242;9.098;2024-01-30T00:24:42;6.50;99.90
16893;DHT22;8563;52.242;9.098;2024-01-30T00:27:14;6.50;99.90
16893;DHT22;8563;52.242;9.098;2024-01-30T00:29:47;6.60;99.90
16893;DHT22;8563;52.242;9.098;2024-01-30T00:32:19;6.50;99.90
16893;DHT22;8563;52.242;9.098;2024-01-30T00:34:52;6.50;99.90
16893;DHT22;8563;52.242;9.098;2024-01-30T00:37:25;6.50;99.90
16893;DHT22;8563;52.242;9.098;2024-01-30T00:39:57;6.50;99.90
16893;DHT22;8563;52.242;9.098;2024-01-30T00:42:29;6.50;99.90
16893;DHT22;8563;52.242;9.098;2024-01-30T00:45:01;6.50;99.90
16893;DHT22;8563;52.242;9.098;2024-01-30T00:47:34;6.50;99.90
16893;DHT22;8563;52.242;9.098;2024-01-30T00:50:08;6.50;99.90
16893;DHT22;8563;52.242;9.098;2024-01-30T00:52:40;6.50;99.90
16893;DHT22;8563;52.242;9.098;2024-01-30T00:55:15;6.50;99.90
16893;DHT22;8563;52.242;9.098;2024-01-30T00:57:48;6.60;99.90
16893;DHT22;8563;52.242;9.098;2024-01-30T01:00:20;6.50;99.90
16893;DHT22;8563;52.242;9.098;2024-01-30T01:02:54;6.50;99.90
16893;DHT22;8563;52.242;9.098;2024-01-30T01:05:27;6.50;99.90
16893;DHT22;8563;52.242;9.098;2024-01-30T01:08:00;6.50;99.90
16893;DHT22;8563;52.242;9.098;2024-01-30T01:10:32;6.50;99.90
16893;DHT22;8563;52.242;9.098;2024-01-30T01:13:04;6.50;99.90
16893;DHT22;8563;52.242;9.098;2024-01-30T01:15:36;6.50;99.90
16893;DHT22;8563;52.242;9.098;2024-01-30T01:18:09;6.50;99.90
16893;DHT22;8563;52.242;9.098;2024-01-30T01:20:42;6.50;99.90
16893;DHT22;8563;52.242;9.098;2024-01-30T01:23:14;6.50;99.90
16893;DHT22;8563;52.242;9.098;2024-01-30T01:25:46;6.50;99.90
16893;DHT22;8563;52.242;9.098;2024-01-30T01:28:19;6.50;99.90
16893;DHT22;8563;52.242;9.098;2024-01-30T01:30:51;6.60;99.90
16893;DHT22;8563;52.242;9.098;2024-01-30T01:33:23;6.60;99.90
16893;DHT22;8563;52.242;9.098;2024-01-30T01:35:57;6.60;99.90
16893;DHT22;8563;52.242;9.098;2024-01-30T01:38:29;6.60;99.90
16893;DHT22;8563;52.242;9.098;2024-01-30T01:41:01;6.70;99.90
16893;DHT22;8563;52.242;9.098;2024-01-30T01:43:33;6.70;99.90
16893;DHT22;8563;52.242;9.098;2024-01-30T01:46:06;6.70;99.90
16893;DHT22;8563;52.242;9.098;2024-01-30T01:48:39;6.70;99.90
16893;DHT22;8563;52.242;9.098;2024-01-30T01:51:13;6.80;99.90
16893;DHT22;8563;52.242;9.098;2024-01-30T01:53:45;6.80;99.90
16893;DHT22;8563;52.242;9.098;2024-01-30T01:56:17;6.80;99.90
16893;DHT22;8563;52.242;9.098;2024-01-30T01:58:50;6.80;99.90
16893;DHT22;8563;52.242;9.098;2024-01-30T02:01:23;6.80;99.90
16893;DHT22;8563;52.242;9.098;2024-01-30T02:03:56;6.80;99.90
16893;DHT22;8563;52.242;9.098;2024-01-30T02:06:30;6.80;99.90
16893;DHT22;8563;52.242;9.098;2024-01-30T02:09:02;6.70;99.90
16893;DHT22;8563;52.242;9.098;2024-01-30T02:11:35;6.70;99.90
16893;DHT22;8563;52.242;9.098;2024-01-30T02:14:09;6.70;99.90
16893;DHT22;8563;52.242;9.098;2024-01-30T02:16:41;6.70;99.90
16893;DHT22;8563;52.242;9.098;2024-01-30T02:19:13;6.70;99.90
16893;DHT22;8563;52.242;9.098;2024-01-30T02:21:47;6.70;99.90
16893;DHT22;8563;52.242;9.098;2024-01-30T02:24:20;6.70;99.90
16893;DHT22;8563;52.242;9.098;2024-01-30T02:26:52;6.70;99.90
16893;DHT22;8563;52.242;9.098;2024-01-30T02:29:24;6.70;99.90
16893;DHT22;8563;52.242;9.098;2024-01-30T02:31:56;6.70;99.90
16893;DHT22;8563;52.242;9.098;2024-01-30T02:34:29;6.60;99.90
16893;DHT22;8563;52.242;9.098;2024-01-30T02:37:02;6.60;99.90
16893;DHT22;8563;52.242;9.098;2024-01-30T02:39:35;6.60;99.90
16893;DHT22;8563;52.242;9.098;2024-01-30T02:42:07;6.60;99.90
16893;DHT22;8563;52.242;9.098;2024-01-30T02:44:39;6.50;99.90
16893;DHT22;8563;52.242;9.098;2024-01-30T02:47:11;6.40;99.90
16893;DHT22;8563;52.242;9.098;2024-01-30T02:49:43;6.30;99.90
16893;DHT22;8563;52.242;9.098;2024-01-30T02:52:17;6.20;99.90
16893;DHT22;8563;52.242;9.098;2024-01-30T02:54:50;6.20;99.90
16893;DHT22;8563;52.242;9.098;2024-01-30T02:57:22;6.10;99.90
16893;DHT22;8563;52.242;9.098;2024-01-30T02:59:54;6.10;99.90
16893;DHT22;8563;52.242;9.098;2024-01-30T03:02:26;6.00;99.90
16893;DHT22;8563;52.242;9.098;2024-01-30T03:04:59;6.00;99.90
16893;DHT22;8563;52.242;9.098;2024-01-30T03:07:33;6.00;99.90
16893;DHT22;8563;52.242;9.098;2024-01-30T03:10:06;6.00;99.90
16893;DHT22;8563;52.242;9.098;2024-01-30T03:12:38;6.00;99.90
16893;DHT22;8563;52.242;9.098;2024-01-30T03:15:10;6.00;99.90
16893;DHT22;8563;52.242;9.098;2024-01-30T03:17:43;6.00;99.90
16893;DHT22;8563;52.242;9.098;2024-01-30T03:20:15;6.00;99.90
16893;DHT22;8563;52.242;9.098;2024-01-30T03:22:48;6.00;99.90
16893;DHT22;8563;52.242;9.098;2024-01-30T03:25:21;6.00;99.90
16893;DHT22;8563;52.242;9.098;2024-01-30T03:27:53;6.00;99.90
16893;DHT22;8563;52.242;9.098;2024-01-30T03:30:25;5.90;99.90
16893;DHT22;8563;52.242;9.098;2024-01-30T03:32:57;5.90;99.90
16893;DHT22;8563;52.242;9.098;2024-01-30T03:35:29;5.90;99.90
16893;DHT22;8563;52.242;9.098;2024-01-30T03:38:03;5.90;99.90
16893;DHT22;8563;52.242;9.098;2024-01-30T03:40:35;5.90;99.90
16893;DHT22;8563;52.242;9.098;2024-01-30T03:43:07;6.00;99.90
16893;DHT22;8563;52.242;9.098;2024-01-30T03:45:40;6.00;99.90
16893;DHT22;8563;52.242;9.098;2024-01-30T03:48:12;6.00;99.90
16893;DHT22;8563;52.242;9.098;2024-01-30T03:50:44;5.90;99.90
16893;DHT22;8563;52.242;9.098;2024-01-30T03:53:18;6.00;99.90
16893;DHT22;8563;52.242;9.098;2024-01-30T03:55:50;6.00;99.90
16893;DHT22;8563;52.242;9.098;2024-01-30T03:58:22;6.00;99.90
16893;DHT22;8563;52.242;9.098;2024-01-30T04:00:54;6.00;99.90
16893;DHT22;8563;52.242;9.098;2024-01-30T04:03:26;6.00;99.90
16893;DHT22;8563;52.242;9.098;2024-01-30T04:05:59;5.90;99.90
16893;DHT22;8563;52.242;9.098;2024-01-30T04:08:32;5.90;99.90
16893;DHT22;8563;52.242;9.098;2024-01-30T04:11:05;5.90;99.90
16893;DHT22;8563;52.242;9.098;2024-01-30T04:13:37;5.90;99.90
16893;DHT22;8563;52.242;9.098;2024-01-30T04:16:19;5.90;99.90
16893;DHT22;8563;52.242;9.098;2024-01-30T04:18:52;5.90;99.90
16893;DHT22;8563;52.242;9.098;2024-01-30T04:21:24;5.90;99.90
16893;DHT22;8563;52.242;9.098;2024-01-30T04:23:58;5.90;99.90
16893;DHT22;8563;52.242;9.098;2024-01-30T04:26:30;5.90;99.90
16893;DHT22;8563;52.242;9.098;2024-01-30T04:29:02;5.90;99.90
16893;DHT22;8563;52.242;9.098;2024-01-30T04:31:36;5.90;99.90
16893;DHT22;8563;52.242;9.098;2024-01-30T04:34:08;6.00;99.90
16893;DHT22;8563;52.242;9.098;2024-01-30T04:36:44;5.90;99.90
16893;DHT22;8563;52.242;9.098;2024-01-30T04:39:17;5.90;99.90
16893;DHT22;8563;52.242;9.098;2024-01-30T04:41:49;5.90;99.90
16893;DHT22;8563;52.242;9.098;2024-01-30T04:44:22;5.90;99.90
16893;DHT22;8563;52.242;9.098;2024-01-30T04:46:54;5.90;99.90
16893;DHT22;8563;52.242;9.098;2024-01-30T04:49:29;5.90;99.90
16893;DHT22;8563;52.242;9.098;2024-01-30T04:52:02;5.90;99.90
16893;DHT22;8563;52.242;9.098;2024-01-30T04:54:36;5.90;99.90
16893;DHT22;8563;52.242;9.098;2024-01-30T04:57:08;6.00;99.90
16893;DHT22;8563;52.242;9.098;2024-01-30T04:59:42;6.00;99.90
16893;DHT22;8563;52.242;9.098;2024-01-30T05:02:15;5.90;99.90
16893;DHT22;8563;52.242;9.098;2024-01-30T05:04:47;5.90;99.90
16893;DHT22;8563;52.242;9.098;2024-01-30T05:07:19;5.90;99.90
16893;DHT22;8563;52.242;9.098;2024-01-30T05:09:53;5.90;99.90
16893;DHT22;8563;52.242;9.098;2024-01-30T05:12:26;5.80;99.90
16893;DHT22;8563;52.242;9.098;2024-01-30T05:14:58;5.80;99.90
16893;DHT22;8563;52.242;9.098;2024-01-30T05:17:30;5.80;99.90
16893;DHT22;8563;52.242;9.098;2024-01-30T05:20:03;5.90;99.90
16893;DHT22;8563;52.242;9.098;2024-01-30T05:22:35;5.90;99.90
16893;DHT22;8563;52.242;9.098;2024-01-30T05:25:09;5.80;99.90
16893;DHT22;8563;52.242;9.098;2024-01-30T05:27:41;5.80;99.90
16893;DHT22;8563;52.242;9.098;2024-01-30T05:30:13;5.80;99.90
16893;DHT22;8563;52.242;9.098;2024-01-30T05:32:46;5.70;99.90
16893;DHT22;8563;52.242;9.098;2024-01-30T05:35:18;5.70;99.90
16893;DHT22;8563;52.242;9.098;2024-01-30T05:37:51;5.70;99.90
16893;DHT22;8563;52.242;9.098;2024-01-30T05:40:25;5.70;99.90
16893;DHT22;8563;52.242;9.098;2024-01-30T05:42:58;5.80;99.90
16893;DHT22;8563;52.242;9.098;2024-01-30T05:45:32;5.80;99.90
16893;DHT22;8563;52.242;9.098;2024-01-30T05:48:05;5.70;99.90
16893;DHT22;8563;52.242;9.098;2024-01-30T05:50:37;5.80;99.90
16893;DHT22;8563;52.242;9.098;2024-01-30T05:53:09;5.90;99.90
16893;DHT22;8563;52.242;9.098;2024-01-30T05:55:43;5.90;99.90
16893;DHT22;8563;52.242;9.098;2024-01-30T05:58:15;5.90;99.90
16893;DHT22;8563;52.242;9.098;2024-01-30T06:00:47;5.90;99.90
16893;DHT22;8563;52.242;9.098;2024-01-30T06:03:20;5.90;99.90
16893;DHT22;8563;52.242;9.098;2024-01-30T06:05:52;5.90;99.90
16893;DHT22;8563;52.242;9.098;2024-01-30T06:08:24;5.90;99.90
16893;DHT22;8563;52.242;9.098;2024-01-30T06:10:59;6.00;99.90
16893;DHT22;8563;52.242;9.098;2024-01-30T06:13:31;6.00;99.90
16893;DHT22;8563;52.242;9.098;2024-01-30T06:16:05;6.10;99.90
16893;DHT22;8563;52.242;9.098;2024-01-30T06:18:40;6.10;99.90
16893;DHT22;8563;52.242;9.098;2024-01-30T06:21:13;6.10;99.90
16893;DHT22;8563;52.242;9.098;2024-01-30T06:23:45;6.00;99.90
16893;DHT22;8563;52.242;9.098;2024-01-30T06:26:19;6.00;99.90
16893;DHT22;8563;52.242;9.098;2024-01-30T06:28:51;6.00;99.90
16893;DHT22;8563;52.242;9.098;2024-01-30T06:31:24;6.00;99.90
16893;DHT22;8563;52.242;9.098;2024-01-30T06:33:56;6.10;99.90
16893;DHT22;8563;52.242;9.098;2024-01-30T06:36:28;6.10;99.90
16893;DHT22;8563;52.242;9.098;2024-01-30T06:39:00;6.10;99.90
16893;DHT22;8563;52.242;9.098;2024-01-30T06:41:34;6.10;99.90
16893;DHT22;8563;52.242;9.098;2024-01-30T06:44:06;6.20;99.90
16893;DHT22;8563;52.242;9.098;2024-01-30T06:46:39;6.20;99.90
16893;DHT22;8563;52.242;9.098;2024-01-30T06:49:11;6.20;99.90
16893;DHT22;8563;52.242;9.098;2024-01-30T06:51:43;6.30;99.90
16893;DHT22;8563;52.242;9.098;2024-01-30T06:54:15;6.40;99.90
16893;DHT22;8563;52.242;9.098;2024-01-30T06:56:49;6.40;99.90
16893;DHT22;8563;52.242;9.098;2024-01-30T06:59:22;6.30;99.90
16893;DHT22;8563;52.242;9.098;2024-01-30T07:01:54;6.30;99.90
16893;DHT22;8563;52.242;9.098;2024-01-30T07:04:26;6.30;99.90
16893;DHT22;8563;52.242;9.098;2024-01-30T07:06:58;6.20;99.90
16893;DHT22;8563;52.242;9.098;2024-01-30T07:09:31;6.30;99.90
16893;DHT22;8563;52.242;9.098;2024-01-30T07:12:05;6.30;99.90
16893;DHT22;8563;52.242;9.098;2024-01-30T07:14:38;6.30;99.90
16893;DHT22;8563;52.242;9.098;2024-01-30T07:17:10;6.20;99.90
16893;DHT22;8563;52.242;9.098;2024-01-30T07:19:42;6.20;99.90
16893;DHT22;8563;52.242;9.098;2024-01-30T07:22:14;6.20;99.90
16893;DHT22;8563;52.242;9.098;2024-01-30T07:24:46;6.20;99.90
16893;DHT22;8563;52.242;9.098;2024-01-30T07:27:21;6.20;99.90
16893;DHT22;8563;52.242;9.098;2024-01-30T07:29:53;6.20;99.90
16893;DHT22;8563;52.242;9.098;2024-01-30T07:32:25;6.20;99.90
16893;DHT22;8563;52.242;9.098;2024-01-30T07:34:58;6.20;99.90
16893;DHT22;8563;52.242;9.098;2024-01-30T07:37:30;6.20;99.90
16893;DHT22;8563;52.242;9.098;2024-01-30T07:40:02;6.20;99.90
16893;DHT22;8563;52.242;9.098;2024-01-30T07:42:36;6.30;99.90
16893;DHT22;8563;52.242;9.098;2024-01-30T07:45:09;6.40;99.90
16893;DHT22;8563;52.242;9.098;2024-01-30T07:47:41;6.40;99.90
16893;DHT22;8563;52.242;9.098;2024-01-30T07:50:14;6.40;99.90
16893;DHT22;8563;52.242;9.098;2024-01-30T07:52:46;6.50;99.90
16893;DHT22;8563;52.242;9.098;2024-01-30T07:55:22;6.60;99.90
16893;DHT22;8563;52.242;9.098;2024-01-30T07:57:57;6.70;99.90
16893;DHT22;8563;52.242;9.098;2024-01-30T08:00:29;6.70;99.90
16893;DHT22;8563;52.242;9.098;2024-01-30T08:03:02;6.80;99.90
16893;DHT22;8563;52.242;9.098;2024-01-30T08:05:34;6.80;99.90
16893;DHT22;8563;52.242;9.098;2024-01-30T08:08:06;6.80;99.90
16893;DHT22;8563;52.242;9.098;2024-01-30T08:10:38;6.80;99.90
16893;DHT22;8563;52.242;9.098;2024-01-30T08:13:12;6.70;99.90
16893;DHT22;8563;52.242;9.098;2024-01-30T08:15:44;6.70;99.90
16893;DHT22;8563;52.242;9.098;2024-01-30T08:18:16;6.70;99.90
16893;DHT22;8563;52.242;9.098;2024-01-30T08:20:49;6.70;99.90
16893;DHT22;8563;52.242;9.098;2024-01-30T08:23:21;6.80;99.90
16893;DHT22;8563;52.242;9.098;2024-01-30T08:25:53;6.80;99.90
16893;DHT22;8563;52.242;9.098;2024-01-30T08:28:26;6.90;99.90
16893;DHT22;8563;52.242;9.098;2024-01-30T08:30:59;6.90;99.90
16893;DHT22;8563;52.242;9.098;2024-01-30T08:33:34;6.90;99.90
16893;DHT22;8563;52.242;9.098;2024-01-30T08:36:06;7.00;99.90
16893;DHT22;8563;52.242;9.098;2024-01-30T08:38:39;7.10;99.90
16893;DHT22;8563;52.242;9.098;2024-01-30T08:41:11;7.10;99.90
16893;DHT22;8563;52.242;9.098;2024-01-30T08:43:45;7.20;99.90
16893;DHT22;8563;52.242;9.098;2024-01-30T08:46:18;7.20;99.90
16893;DHT22;8563;52.242;9.098;2024-01-30T08:48:50;7.30;99.90
16893;DHT22;8563;52.242;9.098;2024-01-30T08:51:22;7.30;99.90
16893;DHT22;8563;52.242;9.098;2024-01-30T08:53:54;7.40;99.90
16893;DHT22;8563;52.242;9.098;2024-01-30T08:56:26;7.40;99.90
16893;DHT22;8563;52.242;9.098;2024-01-30T08:59:00;7.40;99.90
16893;DHT22;8563;52.242;9.098;2024-01-30T09:01:32;7.50;99.90
16893;DHT22;8563;52.242;9.098;2024-01-30T09:04:04;7.50;99.90
16893;DHT22;8563;52.242;9.098;2024-01-30T09:06:37;7.60;99.90
16893;DHT22;8563;52.242;9.098;2024-01-30T09:09:10;7.60;99.90
16893;DHT22;8563;52.242;9.098;2024-01-30T09:11:42;7.70;99.90
16893;DHT22;8563;52.242;9.098;2024-01-30T09:14:16;7.70;99.90
16893;DHT22;8563;52.242;9.098;2024-01-30T09:16:48;7.70;99.90
16893;DHT22;8563;52.242;9.098;2024-01-30T09:19:20;7.80;99.90
16893;DHT22;8563;52.242;9.098;2024-01-30T09:21:52;7.80;99.90
16893;DHT22;8563;52.242;9.098;2024-01-30T09:24:26;7.80;99.90
16893;DHT22;8563;52.242;9.098;2024-01-30T09:26:58;7.80;99.90
16893;DHT22;8563;52.242;9.098;2024-01-30T09:29:32;7.80;99.90
16893;DHT22;8563;52.242;9.098;2024-01-30T09:32:06;7.80;99.90
16893;DHT22;8563;52.242;9.098;2024-01-30T09:34:39;7.90;99.90
16893;DHT22;8563;52.242;9.098;2024-01-30T09:37:12;8.00;99.90
16893;DHT22;8563;52.242;9.098;2024-01-30T09:39:46;8.10;99.90
16893;DHT22;8563;52.242;9.098;2024-01-30T09:42:26;8.20;99.90
16893;DHT22;8563;52.242;9.098;2024-01-30T09:45:00;8.30;99.90
16893;DHT22;8563;52.242;9.098;2024-01-30T09:47:39;8.40;99.90
16893;DHT22;8563;52.242;9.098;2024-01-30T09:50:14;8.50;99.90
16893;DHT22;8563;52.242;9.098;2024-01-30T09:52:47;8.50;99.90
16893;DHT22;8563;52.242;9.098;2024-01-30T09:55:20;8.50;99.90
16893;DHT22;8563;52.242;9.098;2024-01-30T09:57:53;8.50;99.90
16893;DHT22;8563;52.242;9.098;2024-01-30T10:00:27;8.60;99.90
16893;DHT22;8563;52.242;9.098;2024-01-30T10:02:59;8.60;99.90
16893;DHT22;8563;52.242;9.098;2024-01-30T10:05:32;8.70;99.90
16893;DHT22;8563;52.242;9.098;2024-01-30T10:08:06;8.80;99.90
16893;DHT22;8563;52.242;9.098;2024-01-30T10:10:39;8.90;99.90
16893;DHT22;8563;52.242;9.098;2024-01-30T10:13:11;8.90;99.90
16893;DHT22;8563;52.242;9.098;2024-01-30T10:15:45;9.00;99.90
16893;DHT22;8563;52.242;9.098;2024-01-30T10:18:17;9.00;99.90
16893;DHT22;8563;52.242;9.098;2024-01-30T10:20:49;9.10;99.90
16893;DHT22;8563;52.242;9.098;2024-01-30T10:23:22;9.20;99.90
16893;DHT22;8563;52.242;9.098;2024-01-30T10:25:54;9.20;99.90
16893;DHT22;8563;52.242;9.098;2024-01-30T10:28:27;9.30;99.90
16893;DHT22;8563;52.242;9.098;2024-01-30T10:31:02;9.30;99.90
16893;DHT22;8563;52.242;9.098;2024-01-30T10:33:35;9.30;99.90
16893;DHT22;8563;52.242;9.098;2024-01-30T10:36:07;9.30;99.90
16893;DHT22;8563;52.242;9.098;2024-01-30T10:38:42;9.30;99.90
16893;DHT22;8563;52.242;9.098;2024-01-30T10:41:19;9.40;99.90
16893;DHT22;8563;52.242;9.098;2024-01-30T10:44:02;9.40;99.90
16893;DHT22;8563;52.242;9.098;2024-01-30T10:46:38;9.40;99.90
16893;DHT22;8563;52.242;9.098;2024-01-30T10:49:11;9.50;99.90
16893;DHT22;8563;52.242;9.098;2024-01-30T10:51:44;9.50;99.90
16893;DHT22;8563;52.242;9.098;2024-01-30T10:54:17;9.50;99.90
16893;DHT22;8563;52.242;9.098;2024-01-30T10:56:50;9.50;99.90
16893;DHT22;8563;52.242;9.098;2024-01-30T10:59:23;9.60;99.90
16893;DHT22;8563;52.242;9.098;2024-01-30T11:01:58;9.70;99.90
16893;DHT22;8563;52.242;9.098;2024-01-30T11:04:36;9.70;99.90
16893;DHT22;8563;52.242;9.098;2024-01-30T11:07:15;9.70;99.90
16893;DHT22;8563;52.242;9.098;2024-01-30T11:09:51;9.80;99.90
16893;DHT22;8563;52.242;9.098;2024-01-30T11:12:24;9.80;99.90
16893;DHT22;8563;52.242;9.098;2024-01-30T11:15:04;10.00;99.90
16893;DHT22;8563;52.242;9.098;2024-01-30T11:17:42;9.90;99.90
16893;DHT22;8563;52.242;9.098;2024-01-30T11:20:16;10.00;99.90
16893;DHT22;8563;52.242;9.098;2024-01-30T11:22:52;10.10;99.90
16893;DHT22;8563;52.242;9.098;2024-01-30T11:25:25;10.20;99.90
16893;DHT22;8563;52.242;9.098;2024-01-30T11:27:58;10.20;99.90
16893;DHT22;8563;52.242;9.098;2024-01-30T11:30:32;10.30;99.90
16893;DHT22;8563;52.242;9.098;2024-01-30T11:33:07;10.50;99.90
16893;DHT22;8563;52.242;9.098;2024-01-30T11:35:40;10.50;99.90
16893;DHT22;8563;52.242;9.098;2024-01-30T11:38:14;10.50;99.90
16893;DHT22;8563;52.242;9.098;2024-01-30T11:40:48;10.50;99.90
16893;DHT22;8563;52.242;9.098;2024-01-30T11:43:20;10.50;99.90
16893;DHT22;8563;52.242;9.098;2024-01-30T11:45:52;10.60;99.90
16893;DHT22;8563;52.242;9.098;2024-01-30T11:48:26;10.60;99.90
16893;DHT22;8563;52.242;9.098;2024-01-30T11:50:58;10.70;99.90
16893;DHT22;8563;52.242;9.098;2024-01-30T11:53:31;10.80;99.90
16893;DHT22;8563;52.242;9.098;2024-01-30T11:56:06;11.00;99.90
16893;DHT22;8563;52.242;9.098;2024-01-30T11:58:42;11.10;99.90
16893;DHT22;8563;52.242;9.098;2024-01-30T12:01:16;11.10;99.90
16893;DHT22;8563;52.242;9.098;2024-01-30T12:03:51;11.10;99.90
16893;DHT22;8563;52.242;9.098;2024-01-30T12:06:23;11.00;99.90
16893;DHT22;8563;52.242;9.098;2024-01-30T12:08:59;11.00;99.90
16893;DHT22;8563;52.242;9.098;2024-01-30T12:11:32;10.90;99.90
16893;DHT22;8563;52.242;9.098;2024-01-30T12:14:04;11.00;99.90
16893;DHT22;8563;52.242;9.098;2024-01-30T12:16:36;11.00;99.90
16893;DHT22;8563;52.242;9.098;2024-01-30T12:19:10;11.10;99.90
16893;DHT22;8563;52.242;9.098;2024-01-30T12:21:42;11.20;99.90
16893;DHT22;8563;52.242;9.098;2024-01-30T12:24:15;11.30;99.90
16893;DHT22;8563;52.242;9.098;2024-01-30T12:26:47;11.40;99.90
16893;DHT22;8563;52.242;9.098;2024-01-30T12:29:20;11.40;99.90
16893;DHT22;8563;52.242;9.098;2024-01-30T12:31:53;11.50;99.90
16893;DHT22;8563;52.242;9.098;2024-01-30T12:34:27;11.50;99.90
16893;DHT22;8563;52.242;9.098;2024-01-30T12:36:59;11.50;99.90
16893;DHT22;8563;52.242;9.098;2024-01-30T12:39:31;11.50;99.90
16893;DHT22;8563;52.242;9.098;2024-01-30T12:42:04;11.60;99.90
16893;DHT22;8563;52.242;9.098;2024-01-30T12:44:36;11.60;99.90
16893;DHT22;8563;52.242;9.098;2024-01-30T12:47:09;11.70;99.90
16893;DHT22;8563;52.242;9.098;2024-01-30T12:49:43;11.70;99.90
16893;DHT22;8563;52.242;9.098;2024-01-30T12:52:16;11.70;99.90
16893;DHT22;8563;52.242;9.098;2024-01-30T12:54:49;11.70;99.90
16893;DHT22;8563;52.242;9.098;2024-01-30T12:57:21;11.60;99.90
16893;DHT22;8563;52.242;9.098;2024-01-30T12:59:53;11.60;99.90
16893;DHT22;8563;52.242;9.098;2024-01-30T13:02:25;11.60;99.90
16893;DHT22;8563;52.242;9.098;2024-01-30T13:05:07;11.60;99.90
16893;DHT22;8563;52.242;9.098;2024-01-30T13:07:39;11.60;99.90
16893;DHT22;8563;52.242;9.098;2024-01-30T13:10:11;11.70;99.90
16893;DHT22;8563;52.242;9.098;2024-01-30T13:12:44;11.80;99.90
16893;DHT22;8563;52.242;9.098;2024-01-30T13:15:16;11.80;99.90
16893;DHT22;8563;52.242;9.098;2024-01-30T13:17:48;11.90;99.90
16893;DHT22;8563;52.242;9.098;2024-01-30T13:20:22;11.90;99.90
16893;DHT22;8563;52.242;9.098;2024-01-30T13:22:54;11.90;99.90
16893;DHT22;8563;52.242;9.098;2024-01-30T13:25:26;11.90;99.90
16893;DHT22;8563;52.242;9.098;2024-01-30T13:27:59;11.90;99.90
16893;DHT22;8563;52.242;9.098;2024-01-30T13:30:32;11.90;99.90
16893;DHT22;8563;52.242;9.098;2024-01-30T13:33:04;11.90;99.90
16893;DHT22;8563;52.242;9.098;2024-01-30T13:35:38;11.90;99.90
16893;DHT22;8563;52.242;9.098;2024-01-30T13:38:10;11.90;99.90
16893;DHT22;8563;52.242;9.098;2024-01-30T13:40:42;11.90;99.90
16893;DHT22;8563;52.242;9.098;2024-01-30T13:43:14;11.80;99.90
16893;DHT22;8563;52.242;9.098;2024-01-30T13:45:47;11.80;99.90
16893;DHT22;8563;52.242;9.098;2024-01-30T13:48:19;11.80;99.90
16893;DHT22;8563;52.242;9.098;2024-01-30T13:50:53;11.80;99.90
16893;DHT22;8563;52.242;9.098;2024-01-30T13:53:26;11.80;99.90
16893;DHT22;8563;52.242;9.098;2024-01-30T13:55:58;11.90;99.90
16893;DHT22;8563;52.242;9.098;2024-01-30T13:58:30;11.80;99.90
16893;DHT22;8563;52.242;9.098;2024-01-30T14:01:04;11.90;99.90
16893;DHT22;8563;52.242;9.098;2024-01-30T14:03:36;11.90;99.90
16893;DHT22;8563;52.242;9.098;2024-01-30T14:06:11;11.90;99.90
16893;DHT22;8563;52.242;9.098;2024-01-30T14:08:43;12.00;99.90
16893;DHT22;8563;52.242;9.098;2024-01-30T14:11:16;12.00;99.90
16893;DHT22;8563;52.242;9.098;2024-01-30T14:13:48;12.00;99.90
16893;DHT22;8563;52.242;9.098;2024-01-30T14:16:21;12.10;99.90
16893;DHT22;8563;52.242;9.098;2024-01-30T14:18:55;12.10;99.90
16893;DHT22;8563;52.242;9.098;2024-01-30T14:21:29;12.10;99.90
16893;DHT22;8563;52.242;9.098;2024-01-30T14:24:01;12.10;99.90
16893;DHT22;8563;52.242;9.098;2024-01-30T14:26:33;12.10;99.90
16893;DHT22;8563;52.242;9.098;2024-01-30T14:29:06;12.10;99.90
16893;DHT22;8563;52.242;9.098;2024-01-30T14:31:38;12.00;99.90
16893;DHT22;8563;52.242;9.098;2024-01-30T14:34:10;12.10;99.90
16893;DHT22;8563;52.242;9.098;2024-01-30T14:36:45;12.10;99.90
16893;DHT22;8563;52.242;9.098;2024-01-30T14:39:17;12.10;99.90
16893;DHT22;8563;52.242;9.098;2024-01-30T14:41:49;12.00;99.90
16893;DHT22;8563;52.242;9.098;2024-01-30T14:44:21;12.00;99.90
16893;DHT22;8563;52.242;9.098;2024-01-30T14:46:54;12.00;99.90
16893;DHT22;8563;52.242;9.098;2024-01-30T14:49:27;11.90;99.90
16893;DHT22;8563;52.242;9.098;2024-01-30T14:52:00;11.90;99.90
16893;DHT22;8563;52.242;9.098;2024-01-30T14:54:35;11.90;99.90
16893;DHT22;8563;52.242;9.098;2024-01-30T14:57:07;11.90;99.90
16893;DHT22;8563;52.242;9.098;2024-01-30T14:59:39;11.80;99.90
16893;DHT22;8563;52.242;9.098;2024-01-30T15:02:12;11.80;99.90
16893;DHT22;8563;52.242;9.098;2024-01-30T15:04:44;11.90;99.90
16893;DHT22;8563;52.242;9.098;2024-01-30T15:07:18;11.90;99.90
16893;DHT22;8563;52.242;9.098;2024-01-30T15:09:50;11.90;99.90
16893;DHT22;8563;52.242;9.098;2024-01-30T15:12:22;11.80;99.90
16893;DHT22;8563;52.242;9.098;2024-01-30T15:14:54;11.80;99.90
16893;DHT22;8563;52.242;9.098;2024-01-30T15:17:27;11.80;99.90
16893;DHT22;8563;52.242;9.098;2024-01-30T15:20:00;11.80;99.90
16893;DHT22;8563;52.242;9.098;2024-01-30T15:22:35;11.80;99.90
16893;DHT22;8563;52.242;9.098;2024-01-30T15:25:07;11.90;99.90
16893;DHT22;8563;52.242;9.098;2024-01-30T15:27:40;11.90;99.90
16893;DHT22;8563;52.242;9.098;2024-01-30T17:12:40;11.50;99.90
16893;DHT22;8563;52.242;9.098;2024-01-30T17:15:12;11.50;99.90
16893;DHT22;8563;52.242;9.098;2024-01-30T17:17:44;11.50;99.90
16893;DHT22;8563;52.242;9.098;2024-01-30T17:20:16;11.50;99.90
16893;DHT22;8563;52.242;9.098;2024-01-30T17:22:49;11.50;99.90
16893;DHT22;8563;52.242;9.098;2024-01-30T17:25:21;11.40;99.90
16893;DHT22;8563;52.242;9.098;2024-01-30T17:27:55;11.50;99.90
16893;DHT22;8563;52.242;9.098;2024-01-30T17:30:28;11.40;99.90
16893;DHT22;8563;52.242;9.098;2024-01-30T17:33:00;11.40;99.90
16893;DHT22;8563;52.242;9.098;2024-01-30T17:35:32;11.40;99.90
16893;DHT22;8563;52.242;9.098;2024-01-30T17:38:05;11.40;99.90
16893;DHT22;8563;52.242;9.098;2024-01-30T17:40:37;11.40;99.90
16893;DHT22;8563;52.242;9.098;2024-01-30T17:43:10;11.30;99.90
16893;DHT22;8563;52.242;9.098;2024-01-30T17:45:43;11.30;99.90
16893;DHT22;8563;52.242;9.098;2024-01-30T17:48:15;11.20;99.90
16893;DHT22;8563;52.242;9.098;2024-01-30T17:50:48;11.20;99.90
16893;DHT22;8563;52.242;9.098;2024-01-30T17:53:20;11.10;99.90
16893;DHT22;8563;52.242;9.098;2024-01-30T17:55:52;11.10;99.90
16893;DHT22;8563;52.242;9.098;2024-01-30T17:58:26;11.10;99.90
16893;DHT22;8563;52.242;9.098;2024-01-30T18:00:59;11.00;99.90
16893;DHT22;8563;52.242;9.098;2024-01-30T18:03:31;10.90;99.90
16893;DHT22;8563;52.242;9.098;2024-01-30T18:06:04;10.70;99.90
16893;DHT22;8563;52.242;9.098;2024-01-30T18:08:36;10.60;99.90
16893;DHT22;8563;52.242;9.098;2024-01-30T18:11:08;10.50;99.90
16893;DHT22;8563;52.242;9.098;2024-01-30T18:13:42;10.40;99.90
16893;DHT22;8563;52.242;9.098;2024-01-30T18:16:14;10.30;99.90